Weather at Frederick Douglass Greater Rochester International Airport

Public forecast

Using degrees Fahrenheit for public forecast. Weather courtesy of forecast.io.

Current aviation weather report (METAR) for Frederick Douglass Greater Rochester International Airport

2024/05/29 17:54 (retrieved 14 minutes ago)

KROC 291754Z 04009G15KT 10SM FEW055 SCT250 19/06 A3000 RMK AO2 SLP160 60000 T01890061 10194 20150 58002

Aviation forecast (TAF) for Frederick Douglass Greater Rochester International Airport

2024/05/29 18:36 (retrieved 0 seconds ago)

TAF KROC 291732Z 2918/3018 03007KT P6SM SCT060 FM292200 35006KT P6SM SCT150 FM300400 34003KT P6SM SCT250 FM301200 35006KT P6SM SKC